Time;durP1;ratioP1;P1;durP2;ratioP2;P2;SDS_P1;SDS_P2;PMS_P1;PMS_P2;Temp;Humidity;BMP_temperature;BMP_pressure;BME280_temperature;BME280_humidity;BME280_pressure;Samples;Min_cycle;Max_cycle;Signal;HPM_P1;HPM_P2
2023/02/14 00:00:05;;;;;;;40.15;26.55;;;8.50;95.80;;;;;;4993874;28;20033;-79
2023/02/14 00:02:30;;;;;;;37.60;25.48;;;8.50;95.90;;;;;;4993875;28;20757;-78
2023/02/14 00:04:56;;;;;;;44.42;27.02;;;8.50;95.90;;;;;;5002333;28;20022;-77
2023/02/14 00:07:23;;;;;;;37.33;25.88;;;8.50;96.00;;;;;;4992708;28;20060;-78
2023/02/14 00:09:48;;;;;;;40.58;26.80;;;8.50;96.00;;;;;;4986123;28;20116;-78
2023/02/14 00:12:14;;;;;;;36.30;24.13;;;8.50;96.10;;;;;;5000070;28;20018;-78
2023/02/14 00:17:24;;;;;;;37.53;25.65;;;8.40;96.00;;;;;;4997703;28;20033;-79
2023/02/14 00:19:49;;;;;;;35.97;25.63;;;8.40;96.00;;;;;;4993480;28;20022;-78
2023/02/14 00:22:15;;;;;;;40.05;26.35;;;8.40;96.10;;;;;;4997690;28;20093;-78
2023/02/14 00:24:41;;;;;;;37.70;25.17;;;8.40;96.20;;;;;;5007207;28;20038;-78
2023/02/14 00:27:06;;;;;;;35.60;23.75;;;8.40;96.20;;;;;;5007928;28;20041;-77
2023/02/14 00:29:32;;;;;;;39.83;25.20;;;8.30;96.20;;;;;;4998481;28;20280;-76
2023/02/14 00:31:59;;;;;;;42.78;26.60;;;8.30;96.20;;;;;;4991753;28;20470;-79
2023/02/14 00:34:25;;;;;;;38.67;24.33;;;8.30;96.30;;;;;;5003954;28;20124;-78
2023/02/14 00:36:51;;;;;;;37.30;24.52;;;8.30;96.30;;;;;;4993038;28;20045;-77
2023/02/14 00:39:18;;;;;;;37.45;25.42;;;8.20;96.30;;;;;;5001064;28;20117;-77
2023/02/14 00:41:44;;;;;;;37.38;25.05;;;8.20;96.30;;;;;;4994458;28;20026;-78
2023/02/14 00:44:11;;;;;;;36.88;24.42;;;8.20;96.30;;;;;;5004894;28;20018;-78
2023/02/14 00:46:37;;;;;;;40.08;26.52;;;8.20;96.30;;;;;;5001227;28;20062;-78
2023/02/14 00:49:03;;;;;;;39.42;26.17;;;8.20;96.40;;;;;;5000624;28;20052;-78
2023/02/14 00:51:29;;;;;;;34.92;25.23;;;8.20;96.30;;;;;;4985623;28;20081;-78
2023/02/14 00:53:54;;;;;;;42.53;27.85;;;8.20;96.30;;;;;;4976247;28;20519;-78
2023/02/14 00:56:20;;;;;;;43.50;26.85;;;8.20;96.40;;;;;;5005688;28;20069;-78
2023/02/14 00:58:46;;;;;;;43.10;27.67;;;8.20;96.30;;;;;;5000299;28;20034;-76
2023/02/14 01:01:14;;;;;;;38.00;26.35;;;8.20;96.30;;;;;;5009979;28;20029;-78
2023/02/14 01:03:40;;;;;;;39.42;24.73;;;8.20;96.60;;;;;;5008911;28;20034;-77
2023/02/14 01:06:06;;;;;;;43.47;26.25;;;8.20;96.30;;;;;;5009834;28;20030;-78
2023/02/14 01:08:32;;;;;;;39.38;25.73;;;8.10;96.30;;;;;;4992898;28;20041;-78
2023/02/14 01:11:05;;;;;;;39.97;26.15;;;8.10;96.30;;;;;;4987825;28;20026;-78
2023/02/14 01:13:30;;;;;;;38.50;26.33;;;8.10;96.30;;;;;;4990224;28;20036;-78
2023/02/14 01:15:56;;;;;;;37.97;25.05;;;8.10;96.20;;;;;;4987202;28;20817;-77
2023/02/14 01:18:21;;;;;;;36.55;25.42;;;8.10;96.20;;;;;;4992137;28;20611;-78
2023/02/14 01:20:47;;;;;;;39.38;26.23;;;8.10;96.10;;;;;;5006398;28;20025;-78
2023/02/14 01:23:13;;;;;;;37.50;26.05;;;8.10;96.00;;;;;;5004464;28;20397;-78
2023/02/14 01:25:38;;;;;;;38.95;26.40;;;8.00;96.00;;;;;;5006911;28;20026;-77
2023/02/14 01:28:06;;;;;;;39.88;26.30;;;8.00;96.10;;;;;;5010917;28;20436;-78
2023/02/14 01:30:32;;;;;;;36.67;24.98;;;8.00;96.10;;;;;;5012735;28;20081;-78
2023/02/14 01:32:58;;;;;;;40.10;26.80;;;7.90;96.20;;;;;;5007030;28;20185;-77
2023/02/14 01:35:24;;;;;;;38.13;26.52;;;7.90;96.40;;;;;;5007206;28;20025;-79
2023/02/14 01:37:51;;;;;;;39.40;26.40;;;7.90;96.20;;;;;;4995138;28;20025;-79
2023/02/14 01:40:17;;;;;;;42.47;26.60;;;7.90;96.30;;;;;;5013540;28;20022;-79
2023/02/14 01:42:43;;;;;;;41.65;27.08;;;7.90;96.30;;;;;;5012246;28;20037;-79
2023/02/14 01:45:20;;;;;;;39.97;26.48;;;7.90;96.40;;;;;;5003873;28;20027;-77
2023/02/14 01:47:50;;;;;;;42.33;26.63;;;7.80;96.40;;;;;;5010841;28;20044;-78
2023/02/14 01:50:25;;;;;;;40.45;26.58;;;7.80;96.40;;;;;;5011776;28;20061;-79
2023/02/14 01:52:59;;;;;;;42.08;27.05;;;7.80;96.40;;;;;;5004436;28;20029;-77
2023/02/14 01:55:29;;;;;;;41.90;27.85;;;7.70;96.50;;;;;;5006294;28;20065;-77
2023/02/14 01:58:07;;;;;;;41.25;26.77;;;7.70;96.50;;;;;;5000135;28;20485;-78
2023/02/14 02:03:19;;;;;;;37.10;26.48;;;7.70;96.50;;;;;;5005039;28;20511;-78
2023/02/14 02:05:49;;;;;;;39.08;26.00;;;7.70;96.50;;;;;;5005887;28;20339;-77
2023/02/14 02:08:16;;;;;;;39.47;26.20;;;7.70;96.60;;;;;;5003280;28;20035;-77
2023/02/14 02:10:41;;;;;;;40.15;25.02;;;7.60;96.50;;;;;;5005575;28;20054;-77
2023/02/14 02:13:13;;;;;;;34.88;23.67;;;7.70;96.40;;;;;;5002203;28;20516;-77
2023/02/14 02:16:13;;;;;;;37.03;25.27;;;7.70;96.30;;;;;;5005588;28;20027;-77
2023/02/14 02:19:28;;;;;;;37.17;24.20;;;7.70;96.20;;;;;;5002442;28;20026;-77
2023/02/14 02:22:17;;;;;;;37.13;25.02;;;7.70;96.20;;;;;;4992182;28;20026;-78
2023/02/14 02:24:43;;;;;;;40.78;24.35;;;7.70;96.20;;;;;;4954949;28;20135;-78
2023/02/14 02:27:45;;;;;;;34.40;23.58;;;7.70;96.20;;;;;;4991867;28;20038;-78
2023/02/14 02:30:20;;;;;;;36.53;24.17;;;7.70;96.20;;;;;;4989565;28;20103;-78
2023/02/14 02:33:02;;;;;;;33.25;23.23;;;7.60;96.10;;;;;;5005306;28;20054;-77
2023/02/14 02:35:34;;;;;;;37.88;24.38;;;7.60;96.10;;;;;;4993246;28;20037;-80
2023/02/14 02:38:09;;;;;;;36.70;23.08;;;7.60;96.10;;;;;;4995486;28;20026;-77
2023/02/14 02:40:53;;;;;;;34.88;23.05;;;7.60;96.20;;;;;;5002421;28;20018;-78
2023/02/14 02:43:52;;;;;;;31.95;22.23;;;7.60;96.20;;;;;;4997511;28;20030;-77
2023/02/14 02:46:48;;;;;;;38.60;25.13;;;7.60;96.10;;;;;;5008053;28;20022;-77
2023/02/14 02:53:04;;;;;;;34.78;23.90;;;7.50;96.00;;;;;;5000992;28;20408;-77
2023/02/14 02:58:26;;;;;;;34.38;21.63;;;7.50;96.00;;;;;;5009267;28;20048;-77
2023/02/14 03:00:53;;;;;;;35.75;22.13;;;7.50;96.00;;;;;;4999012;28;20033;-78
2023/02/14 03:06:08;;;;;;;33.67;22.97;;;7.40;96.00;;;;;;4998724;28;20041;-77
2023/02/14 03:08:34;;;;;;;31.67;21.77;;;7.50;96.00;;;;;;5008939;28;20042;-78
2023/02/14 03:11:03;;;;;;;34.80;23.98;;;7.40;96.00;;;;;;4997108;28;20026;-78
2023/02/14 03:14:02;;;;;;;35.25;22.10;;;7.40;96.00;;;;;;4994559;28;20058;-79
2023/02/14 03:16:52;;;;;;;36.83;23.00;;;7.40;96.10;;;;;;5003069;28;20030;-78
2023/02/14 03:19:27;;;;;;;32.92;21.65;;;7.40;96.10;;;;;;4997525;28;20099;-78
2023/02/14 03:22:11;;;;;;;34.42;22.63;;;7.40;96.00;;;;;;5011574;28;20022;-77
2023/02/14 03:24:42;;;;;;;33.13;22.17;;;7.40;96.10;;;;;;5009678;28;20045;-78
2023/02/14 03:27:34;;;;;;;34.85;21.33;;;7.40;96.10;;;;;;4998735;28;20077;-78
2023/02/14 03:30:12;;;;;;;33.35;22.10;;;7.40;96.10;;;;;;5004700;28;20057;-78
2023/02/14 03:32:50;;;;;;;35.28;21.77;;;7.40;96.00;;;;;;4979965;28;20054;-78
2023/02/14 03:35:27;;;;;;;33.70;22.50;;;7.30;95.90;;;;;;4997119;28;20022;-78
2023/02/14 03:38:19;;;;;;;34.60;21.40;;;7.30;95.90;;;;;;4996866;28;20074;-78
2023/02/14 03:41:09;;;;;;;32.42;21.45;;;7.30;95.80;;;;;;4999643;28;20555;-78
2023/02/14 03:43:57;;;;;;;31.47;21.50;;;7.30;95.80;;;;;;5006626;28;20022;-79
2023/02/14 03:46:39;;;;;;;35.58;22.02;;;7.30;95.70;;;;;;5004792;28;20022;-78
2023/02/14 03:49:11;;;;;;;32.45;21.95;;;7.30;95.80;;;;;;4992456;28;20121;-78
2023/02/14 03:51:38;;;;;;;33.08;22.35;;;7.20;95.80;;;;;;5006356;28;20310;-77
2023/02/14 03:54:09;;;;;;;35.85;21.58;;;7.20;95.70;;;;;;5002213;28;20031;-79
2023/02/14 03:56:45;;;;;;;34.88;22.52;;;7.20;95.70;;;;;;5003022;28;20037;-77
2023/02/14 03:59:17;;;;;;;31.95;20.90;;;7.20;95.70;;;;;;4998371;28;20057;-78
2023/02/14 04:01:53;;;;;;;30.27;20.80;;;7.20;95.70;;;;;;5002442;28;20054;-76
2023/02/14 04:04:23;;;;;;;32.47;21.85;;;7.20;95.70;;;;;;5004646;28;20030;-79
2023/02/14 04:06:49;;;;;;;31.10;20.48;;;7.20;95.70;;;;;;5004234;28;20106;-77
2023/02/14 04:09:20;;;;;;;32.28;21.35;;;7.20;95.70;;;;;;5003663;28;20026;-77
2023/02/14 04:11:49;;;;;;;39.35;21.00;;;7.10;95.70;;;;;;5005824;28;20026;-76
2023/02/14 04:14:15;;;;;;;31.45;20.48;;;7.20;95.70;;;;;;5001545;28;20050;-78
2023/02/14 04:19:26;;;;;;;34.53;21.75;;;7.10;95.70;;;;;;5013762;28;20040;-77
2023/02/14 04:21:52;;;;;;;32.08;21.13;;;7.10;95.80;;;;;;5012363;28;20022;-78
2023/02/14 04:24:19;;;;;;;34.53;20.67;;;7.10;95.90;;;;;;5005338;28;20022;-78
2023/02/14 04:26:52;;;;;;;30.52;21.45;;;7.00;95.90;;;;;;5006987;28;20663;-78
2023/02/14 04:29:21;;;;;;;33.30;21.52;;;7.10;96.20;;;;;;5001478;28;20025;-78
2023/02/14 04:31:46;;;;;;;32.72;21.83;;;7.00;95.80;;;;;;5009072;28;20049;-78
2023/02/14 04:34:13;;;;;;;29.38;20.92;;;7.00;96.10;;;;;;4995526;28;20130;-77
2023/02/14 04:36:39;;;;;;;34.25;22.00;;;7.00;95.80;;;;;;4993681;28;20088;-77
2023/02/14 04:39:04;;;;;;;32.95;22.45;;;7.00;95.90;;;;;;4999509;28;20630;-77
2023/02/14 04:41:30;;;;;;;41.20;23.45;;;7.00;95.90;;;;;;5008421;28;20072;-76
2023/02/14 04:43:56;;;;;;;32.15;20.85;;;7.00;95.90;;;;;;5010417;28;20026;-78
2023/02/14 04:46:21;;;;;;;34.00;21.75;;;7.00;95.90;;;;;;4997359;28;20481;-77
2023/02/14 04:48:47;;;;;;;30.20;19.75;;;7.00;95.80;;;;;;5007084;28;20444;-77
2023/02/14 04:51:13;;;;;;;31.42;20.90;;;7.00;95.70;;;;;;5009807;28;20044;-77
2023/02/14 04:53:39;;;;;;;28.98;21.23;;;7.00;95.60;;;;;;5005394;28;20034;-78
2023/02/14 04:56:06;;;;;;;32.35;20.75;;;7.00;95.60;;;;;;4990786;28;20022;-76
2023/02/14 04:58:32;;;;;;;34.60;22.35;;;6.90;95.60;;;;;;5000623;28;20029;-76
2023/02/14 05:00:59;;;;;;;33.35;21.13;;;6.90;95.50;;;;;;5008968;28;20408;-78
2023/02/14 05:03:25;;;;;;;31.77;21.80;;;6.90;95.50;;;;;;4991305;28;20037;-77
2023/02/14 05:05:51;;;;;;;32.17;20.88;;;6.90;95.50;;;;;;5007821;28;20026;-77
2023/02/14 05:08:16;;;;;;;33.92;20.92;;;6.90;95.50;;;;;;5009087;28;20022;-77
2023/02/14 05:10:42;;;;;;;32.50;21.70;;;6.90;95.50;;;;;;4993126;28;20485;-78
2023/02/14 05:13:08;;;;;;;31.77;19.90;;;6.80;95.40;;;;;;5005136;28;20083;-78
2023/02/14 05:15:34;;;;;;;35.75;21.88;;;6.80;95.50;;;;;;4991803;28;20106;-78
2023/02/14 05:18:01;;;;;;;29.85;20.25;;;6.80;95.50;;;;;;4995955;28;20032;-77
2023/02/14 05:20:28;;;;;;;34.15;20.35;;;6.80;95.40;;;;;;5004088;28;20846;-78
2023/02/14 05:22:54;;;;;;;31.23;20.58;;;6.80;95.40;;;;;;4992904;28;20034;-78
2023/02/14 05:25:19;;;;;;;32.88;21.63;;;6.70;95.30;;;;;;5004783;28;20491;-78
2023/02/14 05:27:45;;;;;;;30.17;20.25;;;6.70;95.60;;;;;;4991419;28;20042;-77
2023/02/14 05:30:12;;;;;;;36.90;22.10;;;6.70;95.30;;;;;;5000438;28;20037;-77
2023/02/14 05:32:37;;;;;;;29.95;19.67;;;6.70;95.30;;;;;;5008921;28;20053;-77
2023/02/14 05:35:04;;;;;;;32.63;20.73;;;6.70;95.50;;;;;;5008737;28;20063;-77
2023/02/14 05:37:30;;;;;;;29.15;19.23;;;6.60;95.60;;;;;;5002717;28;20030;-76
2023/02/14 05:39:56;;;;;;;28.58;19.80;;;6.60;95.50;;;;;;5003143;28;20038;-77
2023/02/14 05:42:21;;;;;;;31.40;20.55;;;6.60;95.50;;;;;;4987613;28;20037;-79
2023/02/14 05:44:47;;;;;;;34.20;20.38;;;6.60;95.50;;;;;;5003355;28;20104;-78
2023/02/14 05:47:14;;;;;;;30.67;20.60;;;6.60;95.30;;;;;;4998889;28;20022;-77
2023/02/14 05:49:39;;;;;;;32.03;21.88;;;6.60;95.30;;;;;;5001891;28;20030;-77
2023/02/14 05:52:05;;;;;;;31.67;21.00;;;6.60;95.50;;;;;;4995248;28;20389;-78
2023/02/14 05:54:31;;;;;;;35.13;22.08;;;6.60;95.50;;;;;;5008675;28;20399;-78
2023/02/14 05:56:57;;;;;;;28.63;19.52;;;6.50;95.50;;;;;;5009349;28;20034;-77
2023/02/14 05:59:22;;;;;;;30.67;19.52;;;6.50;95.70;;;;;;4998627;28;20030;-78
2023/02/14 06:01:48;;;;;;;29.65;19.05;;;6.50;95.30;;;;;;4989911;28;20384;-79
2023/02/14 06:04:14;;;;;;;32.08;20.65;;;6.50;95.30;;;;;;5015485;28;20049;-78
2023/02/14 06:06:39;;;;;;;32.13;19.10;;;6.50;95.20;;;;;;5016614;28;20076;-77
2023/02/14 06:09:06;;;;;;;28.98;19.63;;;6.50;95.20;;;;;;5001551;28;20055;-77
2023/02/14 06:11:31;;;;;;;28.70;19.42;;;6.40;95.20;;;;;;4998664;28;20301;-80
2023/02/14 06:13:57;;;;;;;29.60;19.52;;;6.40;95.20;;;;;;5014925;28;20022;-78
2023/02/14 06:16:23;;;;;;;31.02;21.00;;;6.40;95.20;;;;;;5020307;28;20060;-78
2023/02/14 06:18:48;;;;;;;27.58;20.33;;;6.40;95.20;;;;;;5020164;28;20017;-76
2023/02/14 06:21:14;;;;;;;29.73;21.05;;;6.40;95.30;;;;;;5020799;28;20587;-77
2023/02/14 06:23:40;;;;;;;34.30;20.02;;;6.40;95.20;;;;;;5003902;28;20037;-77
2023/02/14 06:26:05;;;;;;;30.75;19.25;;;6.40;95.10;;;;;;5004104;28;20013;-77
2023/02/14 06:28:31;;;;;;;30.98;19.40;;;6.30;95.10;;;;;;5021288;28;20042;-78
2023/02/14 06:31:00;;;;;;;32.78;19.95;;;6.30;95.00;;;;;;5008455;28;20120;-77
2023/02/14 06:33:26;;;;;;;28.75;19.92;;;6.30;95.10;;;;;;5020510;28;20029;-78
2023/02/14 06:35:53;;;;;;;32.15;19.10;;;6.30;95.10;;;;;;5017545;28;20041;-77
2023/02/14 06:38:18;;;;;;;28.83;19.67;;;6.30;95.20;;;;;;5022395;28;20521;-79
2023/02/14 06:40:44;;;;;;;30.60;18.58;;;6.30;95.10;;;;;;5012653;28;20053;-77
2023/02/14 06:43:10;;;;;;;31.02;21.45;;;6.30;95.10;;;;;;5022910;28;20018;-76
2023/02/14 06:45:36;;;;;;;32.63;22.08;;;6.20;95.20;;;;;;5008074;28;20441;-77
2023/02/14 06:48:02;;;;;;;35.75;23.15;;;6.10;95.40;;;;;;5014956;28;20042;-78
2023/02/14 06:50:28;;;;;;;31.05;21.40;;;6.10;95.40;;;;;;5022303;28;20030;-77
2023/02/14 06:52:54;;;;;;;32.15;22.98;;;6.10;95.50;;;;;;5021691;28;20022;-78
2023/02/14 06:55:19;;;;;;;30.98;21.02;;;6.00;95.60;;;;;;5007127;28;20029;-77
2023/02/14 06:57:46;;;;;;;34.20;23.58;;;6.00;95.70;;;;;;5010263;28;20034;-77
2023/02/14 07:00:13;;;;;;;32.95;22.80;;;5.90;95.80;;;;;;5005987;28;20045;-78
2023/02/14 07:02:41;;;;;;;37.17;22.02;;;5.90;95.80;;;;;;4988547;28;20026;-77
2023/02/14 07:05:17;;;;;;;36.67;23.02;;;5.90;96.20;;;;;;5006554;28;20048;-81
2023/02/14 07:07:44;;;;;;;36.15;23.10;;;5.90;95.90;;;;;;5010342;28;20030;-77
2023/02/14 07:10:10;;;;;;;33.30;23.73;;;5.90;96.00;;;;;;5006366;28;20034;-78
2023/02/14 07:12:38;;;;;;;33.40;22.13;;;5.80;96.20;;;;;;4993195;28;20491;-78
2023/02/14 07:15:09;;;;;;;33.03;21.65;;;5.80;96.30;;;;;;5001292;28;20019;-78
2023/02/14 07:17:35;;;;;;;37.22;22.63;;;5.80;96.60;;;;;;4997687;28;20093;-77
2023/02/14 07:20:02;;;;;;;35.72;22.02;;;6.00;96.50;;;;;;5010762;28;20156;-77
2023/02/14 07:22:28;;;;;;;33.67;21.52;;;6.20;96.40;;;;;;5007542;28;20042;-78
2023/02/14 07:24:54;;;;;;;30.70;18.88;;;6.50;96.00;;;;;;5010259;28;20034;-78
2023/02/14 07:27:20;;;;;;;26.77;17.95;;;6.80;95.60;;;;;;4999087;28;20056;-76
2023/02/14 07:29:45;;;;;;;29.30;19.10;;;7.10;94.80;;;;;;5007158;28;20452;-78
2023/02/14 07:32:11;;;;;;;26.10;17.67;;;7.40;94.30;;;;;;5006057;28;20127;-77
2023/02/14 07:34:37;;;;;;;26.25;18.88;;;7.60;93.70;;;;;;4994276;28;20029;-78
2023/02/14 07:37:02;;;;;;;26.50;16.05;;;7.90;93.00;;;;;;5019045;28;20487;-77
2023/02/14 07:39:28;;;;;;;24.65;16.83;;;8.10;92.60;;;;;;5012253;28;20014;-78
2023/02/14 07:41:54;;;;;;;25.88;17.15;;;8.30;92.20;;;;;;5012471;28;20026;-79
2023/02/14 07:44:20;;;;;;;23.88;16.35;;;8.50;91.60;;;;;;5010430;28;20053;-77
2023/02/14 07:46:45;;;;;;;23.35;16.42;;;8.70;91.30;;;;;;5011777;28;20026;-78
2023/02/14 07:49:12;;;;;;;25.38;16.75;;;8.80;91.20;;;;;;5011778;28;20025;-78
2023/02/14 07:51:38;;;;;;;25.20;16.10;;;9.00;91.00;;;;;;5001686;28;20031;-77
2023/02/14 07:54:03;;;;;;;24.75;15.98;;;9.10;91.10;;;;;;5001344;28;20022;-77
2023/02/14 07:56:29;;;;;;;26.38;16.00;;;9.20;90.50;;;;;;5005861;28;20408;-76
2023/02/14 07:58:54;;;;;;;23.55;15.85;;;9.30;90.40;;;;;;4982528;28;20084;-78
2023/02/14 08:01:21;;;;;;;24.33;16.40;;;9.50;90.40;;;;;;5010113;28;20502;-78
2023/02/14 08:03:51;;;;;;;22.55;16.23;;;9.60;90.10;;;;;;5009078;28;20085;-78
2023/02/14 08:06:18;;;;;;;24.03;15.77;;;9.70;89.90;;;;;;5011682;28;20085;-76
2023/02/14 08:08:44;;;;;;;22.92;15.65;;;9.80;90.00;;;;;;5011457;28;20030;-78
2023/02/14 08:11:10;;;;;;;24.27;15.73;;;9.80;90.00;;;;;;5010600;28;20026;-77
2023/02/14 08:13:36;;;;;;;25.23;16.88;;;9.90;89.70;;;;;;5009030;28;20030;-78
2023/02/14 08:16:06;;;;;;;21.17;15.23;;;10.00;89.40;;;;;;5011430;28;20129;-79
2023/02/14 08:18:39;;;;;;;20.33;14.85;;;10.00;89.70;;;;;;5016119;28;20024;-78
2023/02/14 08:21:07;;;;;;;20.48;14.70;;;10.10;89.50;;;;;;4997615;28;20404;-77
2023/02/14 08:23:33;;;;;;;22.55;15.70;;;10.20;88.90;;;;;;5014355;28;20092;-79
2023/02/14 08:25:59;;;;;;;20.48;16.05;;;10.30;87.80;;;;;;5019376;28;20053;-77
2023/02/14 08:28:26;;;;;;;22.75;15.18;;;10.40;87.80;;;;;;4999526;28;20052;-79
2023/02/14 08:30:52;;;;;;;24.80;15.25;;;10.60;87.70;;;;;;5010438;28;20453;-78
2023/02/14 08:33:18;;;;;;;22.98;15.55;;;10.60;86.70;;;;;;5004220;28;20782;-77
2023/02/14 08:35:50;;;;;;;21.63;15.95;;;10.60;86.40;;;;;;4999816;28;20076;-77
2023/02/14 08:38:16;;;;;;;20.20;15.50;;;10.60;85.90;;;;;;4981584;28;20033;-78
2023/02/14 08:40:42;;;;;;;21.80;15.60;;;10.60;85.70;;;;;;4999897;28;20026;-77
2023/02/14 08:43:08;;;;;;;21.90;15.68;;;10.50;85.70;;;;;;4999854;28;20393;-75
2023/02/14 08:45:34;;;;;;;22.40;15.50;;;10.60;87.00;;;;;;5001413;28;20025;-77
2023/02/14 08:48:05;;;;;;;20.92;15.70;;;10.70;85.60;;;;;;5000494;28;20028;-76
2023/02/14 08:50:32;;;;;;;24.08;15.23;;;10.70;86.10;;;;;;5002871;28;20040;-77
2023/02/14 08:52:57;;;;;;;24.63;15.98;;;10.70;85.90;;;;;;5000555;28;20022;-76
2023/02/14 08:55:23;;;;;;;23.13;15.75;;;10.90;84.90;;;;;;4996887;28;20178;-75
2023/02/14 08:57:49;;;;;;;21.98;14.60;;;11.00;84.80;;;;;;4999366;28;20026;-77
2023/02/14 09:00:15;;;;;;;21.75;14.52;;;11.20;84.20;;;;;;4996442;28;20030;-77
2023/02/14 09:02:41;;;;;;;22.75;15.00;;;11.30;83.10;;;;;;4997612;28;20121;-77
2023/02/14 09:05:09;;;;;;;20.58;13.98;;;11.40;82.90;;;;;;5001454;28;20034;-76
2023/02/14 09:07:35;;;;;;;19.45;14.68;;;11.60;84.00;;;;;;5001024;28;20105;-76
2023/02/14 09:10:01;;;;;;;24.27;16.58;;;11.80;82.50;;;;;;5004838;28;20057;-77
2023/02/14 09:12:26;;;;;;;22.65;14.68;;;11.90;82.10;;;;;;5006127;28;20021;-76
2023/02/14 09:14:52;;;;;;;25.63;16.00;;;12.00;81.30;;;;;;4997653;28;20026;-77
2023/02/14 09:17:18;;;;;;;20.83;15.35;;;12.20;81.80;;;;;;4995280;28;20073;-77
2023/02/14 09:19:45;;;;;;;20.70;15.18;;;12.30;80.40;;;;;;4997683;28;20550;-77
2023/02/14 09:22:10;;;;;;;20.33;14.60;;;12.50;79.90;;;;;;4996374;28;20022;-78
2023/02/14 09:24:38;;;;;;;23.73;15.43;;;12.60;79.40;;;;;;4993482;28;20443;-78
2023/02/14 09:27:04;;;;;;;19.65;15.02;;;12.70;78.80;;;;;;4999508;28;20041;-78
2023/02/14 09:29:31;;;;;;;20.17;14.88;;;12.90;78.10;;;;;;4993851;28;20030;-77
2023/02/14 09:31:59;;;;;;;21.63;15.88;;;13.00;77.20;;;;;;4995355;28;20052;-78
2023/02/14 09:39:58;;;;;;;20.90;14.93;;;13.10;77.00;;;;;;5005053;28;20045;-78
2023/02/14 09:42:55;;;;;;;21.92;15.25;;;13.20;76.60;;;;;;5002039;28;20035;-78
2023/02/14 09:45:24;;;;;;;23.58;15.00;;;13.30;76.30;;;;;;4987702;28;20104;-77
2023/02/14 09:48:25;;;;;;;20.02;14.65;;;13.40;76.10;;;;;;5004382;28;20033;-79
2023/02/14 09:50:55;;;;;;;21.92;15.18;;;13.50;75.80;;;;;;4991190;28;20034;-79
2023/02/14 09:53:39;;;;;;;20.88;14.38;;;13.70;74.50;;;;;;5000673;28;20084;-78
2023/02/14 09:56:14;;;;;;;26.52;17.77;;;13.80;75.20;;;;;;5004185;28;20026;-77
2023/02/14 09:58:45;;;;;;;23.17;15.73;;;13.80;73.00;;;;;;4997713;28;20030;-79
2023/02/14 10:01:29;;;;;;;22.10;15.20;;;13.80;73.60;;;;;;4997781;28;20096;-79
2023/02/14 10:04:24;;;;;;;20.23;13.60;;;13.90;74.30;;;;;;4999698;28;20173;-78
2023/02/14 10:07:19;;;;;;;19.90;14.68;;;14.00;75.10;;;;;;4982849;28;20026;-79
2023/02/14 10:10:37;;;;;;;23.38;14.50;;;14.00;74.20;;;;;;4997728;28;20096;-79
2023/02/14 10:13:16;;;;;;;19.13;14.85;;;14.10;74.70;;;;;;4992265;28;20039;-78
2023/02/14 10:15:45;;;;;;;23.88;16.55;;;14.20;74.00;;;;;;4999733;28;20032;-79
2023/02/14 10:18:22;;;;;;;20.20;13.07;;;14.30;73.80;;;;;;4982073;28;20573;-78
2023/02/14 10:20:56;;;;;;;21.38;16.10;;;14.40;73.30;;;;;;5001194;28;20033;-78
2023/02/14 10:23:26;;;;;;;22.77;14.10;;;14.40;72.40;;;;;;4999416;28;20754;-79
2023/02/14 10:26:03;;;;;;;20.73;15.27;;;14.40;72.60;;;;;;4998602;28;20056;-79
2023/02/14 10:28:43;;;;;;;19.27;12.60;;;14.60;72.60;;;;;;4986200;28;20095;-79
2023/02/14 10:31:15;;;;;;;;;;;14.60;72.20;;;;;;5000488;28;20397;-78
2023/02/14 10:33:44;;;;;;;19.95;14.75;;;14.60;72.20;;;;;;5000822;28;19913;-77
2023/02/14 10:36:23;;;;;;;23.10;16.20;;;14.60;72.00;;;;;;4999969;28;20033;-79
2023/02/14 10:39:07;;;;;;;18.63;13.30;;;14.70;71.30;;;;;;4998983;28;20543;-78
2023/02/14 10:41:47;;;;;;;20.08;16.13;;;14.90;71.60;;;;;;4999716;28;20040;-77
2023/02/14 10:44:30;;;;;;;19.15;13.88;;;15.10;70.50;;;;;;4980991;28;20050;-78
2023/02/14 10:47:07;;;;;;;22.42;14.98;;;15.20;71.40;;;;;;5000562;28;20389;-78
2023/02/14 10:50:08;;;;;;;19.38;14.10;;;15.30;69.90;;;;;;4998670;28;20311;-77
2023/02/14 10:53:04;;;;;;;18.77;12.80;;;15.30;70.10;;;;;;4982104;28;20072;-76
2023/02/14 10:55:45;;;;;;;15.85;12.35;;;15.50;70.40;;;;;;4980112;28;20026;-75
2023/02/14 10:58:15;;;;;;;20.63;14.52;;;15.70;70.50;;;;;;4998811;28;20460;-75
2023/02/14 11:00:56;;;;;;;23.08;16.42;;;15.70;69.60;;;;;;4999968;28;20040;-75
2023/02/14 11:03:23;;;;;;;20.30;15.43;;;15.80;69.40;;;;;;4998317;28;20042;-75
2023/02/14 11:05:49;;;;;;;24.80;16.50;;;15.80;67.60;;;;;;4996447;28;20033;-74
2023/02/14 11:08:36;;;;;;;18.33;14.63;;;15.80;67.40;;;;;;4999865;28;20029;-77
2023/02/14 11:11:30;;;;;;;20.90;14.98;;;15.90;67.30;;;;;;4993820;28;20037;-74
2023/02/14 11:13:56;;;;;;;23.02;16.83;;;16.00;67.30;;;;;;4997893;28;20035;-74
2023/02/14 11:16:36;;;;;;;19.73;16.05;;;16.00;66.30;;;;;;4979760;28;20034;-76
2023/02/14 11:19:30;;;;;;;19.20;15.25;;;16.10;66.90;;;;;;4997643;28;20045;-75
2023/02/14 11:21:58;;;;;;;22.58;16.55;;;16.10;66.20;;;;;;4995264;28;20044;-76
2023/02/14 11:24:30;;;;;;;19.33;15.15;;;16.30;65.90;;;;;;5001963;28;20022;-77
2023/02/14 11:27:02;;;;;;;20.20;15.13;;;16.30;65.60;;;;;;4985203;28;20106;-77
2023/02/14 11:29:35;;;;;;;31.55;16.27;;;16.40;66.70;;;;;;5001736;28;20089;-76
2023/02/14 11:32:12;;;;;;;22.92;15.15;;;16.40;65.00;;;;;;5006386;28;20029;-74
2023/02/14 11:34:41;;;;;;;23.05;17.02;;;16.60;65.40;;;;;;5006848;28;20134;-76
2023/02/14 11:37:42;;;;;;;21.95;13.38;;;16.60;64.60;;;;;;5007617;28;20022;-77
2023/02/14 11:40:30;;;;;;;19.75;13.75;;;16.80;64.90;;;;;;4987453;28;20037;-76
2023/02/14 11:43:17;;;;;;;18.95;12.40;;;16.80;69.30;;;;;;5000273;28;20030;-78
2023/02/14 11:45:45;;;;;;;19.83;14.48;;;16.80;70.70;;;;;;4997930;28;20134;-77
2023/02/14 11:48:26;;;;;;;20.50;13.32;;;16.80;68.70;;;;;;4996356;28;20034;-75
2023/02/14 11:50:59;;;;;;;17.55;11.80;;;16.90;67.60;;;;;;4999807;28;20037;-76
2023/02/14 11:53:28;;;;;;;20.92;15.48;;;17.10;69.70;;;;;;5000808;28;20092;-77
2023/02/14 11:55:59;;;;;;;21.98;15.73;;;17.10;65.90;;;;;;5000446;28;20029;-77
2023/02/14 11:58:39;;;;;;;19.63;13.40;;;17.20;66.10;;;;;;4999921;28;20041;-77
2023/02/14 12:01:09;;;;;;;19.30;15.27;;;17.20;71.60;;;;;;5005780;28;20037;-77
2023/02/14 12:03:44;;;;;;;18.38;12.75;;;17.30;71.80;;;;;;4979479;28;20018;-77
2023/02/14 12:06:11;;;;;;;18.60;14.27;;;17.40;68.50;;;;;;4998466;28;20477;-75
2023/02/14 12:08:38;;;;;;;16.77;12.48;;;17.40;65.50;;;;;;4997179;28;20045;-76
2023/02/14 12:11:24;;;;;;;20.55;13.52;;;17.60;72.40;;;;;;4996169;28;20081;-77
2023/02/14 12:13:57;;;;;;;18.17;13.73;;;17.50;75.20;;;;;;4997714;28;20034;-75
2023/02/14 12:16:42;;;;;;;22.77;15.52;;;17.60;71.30;;;;;;4997718;28;20032;-76
2023/02/14 12:19:16;;;;;;;21.73;13.82;;;17.60;64.70;;;;;;4998892;28;20037;-75
2023/02/14 12:21:42;;;;;;;17.83;12.10;;;17.60;65.00;;;;;;4998645;28;20512;-76
2023/02/14 12:24:29;;;;;;;11.18;7.43;;;17.60;70.20;;;;;;4999308;28;20131;-77
2023/02/14 12:27:24;;;;;;;21.55;15.25;;;17.80;84.60;;;;;;5000127;28;20528;-75
2023/02/14 12:30:17;;;;;;;19.17;14.15;;;17.90;71.90;;;;;;4997415;28;20045;-75
2023/02/14 12:32:55;;;;;;;24.17;16.63;;;17.90;64.40;;;;;;5000358;28;20050;-77
2023/02/14 12:36:02;;;;;;;21.10;13.05;;;18.00;61.70;;;;;;4981617;28;20491;-75
2023/02/14 12:38:44;;;;;;;10.18;7.20;;;18.10;67.20;;;;;;5000178;28;20500;-77
2023/02/14 12:41:58;;;;;;;21.15;14.20;;;18.10;82.40;;;;;;4999327;28;20061;-77
2023/02/14 12:44:45;;;;;;;16.83;9.43;;;18.20;69.60;;;;;;4954840;28;20172;-76
2023/02/14 12:47:32;;;;;;;17.65;11.85;;;18.40;73.00;;;;;;4998647;28;20022;-76
2023/02/14 12:50:09;;;;;;;17.63;14.25;;;18.50;74.30;;;;;;5001188;28;20573;-76
2023/02/14 12:52:55;;;;;;;20.33;14.10;;;18.60;62.30;;;;;;5001908;28;20034;-78
2023/02/14 12:55:37;;;;;;;19.88;14.05;;;18.70;60.30;;;;;;5001510;28;20128;-76
2023/02/14 12:58:12;;;;;;;17.40;13.10;;;18.80;60.30;;;;;;4995754;28;20560;-76
2023/02/14 13:00:47;;;;;;;22.27;16.05;;;19.00;59.20;;;;;;5001013;28;20450;-76
2023/02/14 13:03:27;;;;;;;11.73;7.28;;;19.00;57.10;;;;;;4997761;28;20033;-76
2023/02/14 13:05:59;;;;;;;12.85;10.20;;;19.30;73.80;;;;;;4997689;28;20029;-76
2023/02/14 13:08:48;;;;;;;18.77;14.52;;;19.30;67.10;;;;;;4995578;28;20038;-77
2023/02/14 13:11:38;;;;;;;15.35;10.93;;;19.20;59.00;;;;;;4994094;28;20030;-77
2023/02/14 13:14:25;;;;;;;16.98;12.52;;;19.10;61.50;;;;;;4997746;28;20033;-77
2023/02/14 13:16:56;;;;;;;22.13;14.30;;;19.10;61.90;;;;;;4997608;28;20034;-76
2023/02/14 13:19:36;;;;;;;17.58;13.52;;;19.20;62.10;;;;;;4999896;28;20031;-77